Terminal Aerodrome Forecast
Issued by NWS

Home | Current Version | Previous Version | Text Only | Print | Product List | Glossary On
Versions: 1 2 3 4 5 6 7 8 9 10 11 12
000
FTUS46 KSEW 052329
TAFOLM
TAF
KOLM 052329Z 0600/0624 02008KT P6SM SCT200
     FM060600 VRB04KT P6SM SCT200
     FM061200 20004KT P6SM SCT200
      TEMPO 0612/0616 2SM BR BKN004=

USA.gov is the U.S. government's official web portal to all federal, state and local government web resources and services.